createdAt,value
2019-06-01T00:00:12.001Z,99687.31
2019-06-01T00:02:40.577Z,99688.14
2019-06-01T00:05:09.728Z,99695.54
2019-06-01T00:07:38.770Z,99691.96
2019-06-01T00:10:08.425Z,99691.08
2019-06-01T00:12:37.155Z,99679.27
2019-06-01T00:15:07.023Z,99680.05
2019-06-01T00:17:35.746Z,99682.97
2019-06-01T00:20:05.577Z,99681.13
2019-06-01T00:22:34.466Z,99683.47
2019-06-01T00:25:03.192Z,99681.13
2019-06-01T00:27:31.936Z,99680.92
2019-06-01T00:30:00.801Z,99674.51
2019-06-01T00:32:29.535Z,99674.06
2019-06-01T00:34:58.336Z,99683.44
2019-06-01T00:37:27.222Z,99687.23
2019-06-01T00:39:55.950Z,99681.97
2019-06-01T00:42:24.680Z,99671.44
2019-06-01T00:44:53.667Z,99673.45
2019-06-01T00:47:22.392Z,99676.98
2019-06-01T00:49:51.166Z,99673.81
2019-06-01T00:52:19.926Z,99676.52
2019-06-01T00:54:49.491Z,99676.92
2019-06-01T00:57:18.359Z,99680.00
2019-06-01T00:59:48.089Z,99671.69
2019-06-01T01:02:16.926Z,99678.42
2019-06-01T01:04:46.369Z,99669.47
2019-06-01T01:07:15.492Z,99665.50
2019-06-01T01:09:44.814Z,99672.64
2019-06-01T01:12:13.640Z,99671.47
2019-06-01T01:14:42.426Z,99662.59
2019-06-01T01:17:11.150Z,99659.92
2019-06-01T01:19:39.882Z,99655.24
2019-06-01T01:22:08.765Z,99655.34
2019-06-01T01:24:37.505Z,99648.96
2019-06-01T01:27:06.212Z,99655.25
2019-06-01T01:29:35.107Z,99652.17
2019-06-01T01:32:03.823Z,99648.17
2019-06-01T01:34:32.549Z,99647.72
2019-06-01T01:37:01.393Z,99651.50
2019-06-01T01:39:30.118Z,99645.17
2019-06-01T01:41:58.851Z,99640.98
2019-06-01T01:44:27.717Z,99638.11
2019-06-01T01:46:57.001Z,99636.13
2019-06-01T01:49:25.848Z,99628.24
2019-06-01T01:51:55.417Z,99641.65
2019-06-01T01:54:24.211Z,99639.45
2019-06-01T01:56:54.052Z,99635.12
2019-06-01T01:59:22.993Z,99641.30
2019-06-01T02:01:52.514Z,99644.02
2019-06-01T02:04:21.413Z,99647.11
2019-06-01T02:06:50.324Z,99642.33
2019-06-01T02:09:19.051Z,99646.33
2019-06-01T02:11:47.768Z,99643.95
2019-06-01T02:14:16.533Z,99637.53
2019-06-01T02:16:45.259Z,99639.45
2019-06-01T02:19:13.979Z,99628.64
2019-06-01T02:21:42.849Z,99632.91
2019-06-01T02:24:11.585Z,99634.05
2019-06-01T02:26:40.320Z,99633.98
2019-06-01T02:29:09.282Z,99631.74
2019-06-01T02:31:42.235Z,99630.19
2019-06-01T02:34:08.460Z,99633.05
2019-06-01T02:36:37.310Z,99637.31
2019-06-01T02:39:09.407Z,99631.27
2019-06-01T02:41:38.126Z,99630.88
2019-06-01T02:44:07.092Z,99627.66
2019-06-01T02:46:36.285Z,99622.77
2019-06-01T02:49:06.256Z,99624.33
2019-06-01T02:51:35.372Z,99626.73
2019-06-01T02:54:04.207Z,99629.43
2019-06-01T02:56:32.897Z,99623.02
2019-06-01T02:59:02.340Z,99630.89
2019-06-01T03:01:34.141Z,99641.39
2019-06-01T03:04:08.091Z,99644.73
2019-06-01T03:06:39.462Z,99645.86
2019-06-01T03:09:10.104Z,99639.77
2019-06-01T03:11:40.740Z,99637.75
2019-06-01T03:14:11.875Z,99640.23
2019-06-01T03:16:42.289Z,99643.31
2019-06-01T03:19:12.125Z,99642.85
2019-06-01T03:21:43.895Z,99641.00
2019-06-01T03:24:13.570Z,99635.53
2019-06-01T03:26:44.912Z,99644.55
2019-06-01T03:29:18.943Z,99645.04
2019-06-01T03:31:47.801Z,99654.30
2019-06-01T03:34:16.509Z,99653.05
2019-06-01T03:36:45.295Z,99658.02
2019-06-01T03:39:14.022Z,99653.36
2019-06-01T03:41:42.855Z,99661.41
2019-06-01T03:44:12.967Z,99662.87
2019-06-01T03:46:41.911Z,99657.00
2019-06-01T03:49:11.864Z,99660.73
2019-06-01T03:51:40.877Z,99658.31
2019-06-01T03:54:10.096Z,99660.86
2019-06-01T03:56:39.015Z,99663.73
2019-06-01T03:59:09.203Z,99666.29
2019-06-01T04:01:38.095Z,99669.97
2019-06-01T04:04:07.225Z,99669.89
2019-06-01T04:06:36.210Z,99677.55
2019-06-01T04:09:07.789Z,99679.35
2019-06-01T04:11:36.663Z,99682.89
2019-06-01T04:14:06.131Z,99687.22
2019-06-01T04:16:34.864Z,99686.89
2019-06-01T04:19:03.818Z,99683.62
2019-06-01T04:21:32.729Z,99674.48
2019-06-01T04:24:01.879Z,99682.88
2019-06-01T04:26:30.665Z,99689.16
2019-06-01T04:28:59.702Z,99692.87
2019-06-01T04:31:28.431Z,99692.95
2019-06-01T04:33:57.153Z,99689.82
2019-06-01T04:36:26.114Z,99696.94
2019-06-01T04:38:54.844Z,99699.77
2019-06-01T04:41:23.577Z,99697.50
2019-06-01T04:43:52.367Z,99700.75
2019-06-01T04:46:21.096Z,99701.52
2019-06-01T04:48:49.841Z,99705.69
2019-06-01T04:51:18.768Z,99702.30
2019-06-01T04:53:47.476Z,99702.30
2019-06-01T04:56:16.205Z,99705.33
2019-06-01T04:58:45.004Z,99704.83
2019-06-01T05:01:13.727Z,99702.64
2019-06-01T05:03:42.454Z,99699.76
2019-06-01T05:06:11.372Z,99699.64
2019-06-01T05:08:40.136Z,99698.78
2019-06-01T05:11:10.188Z,99695.80
2019-06-01T05:13:39.372Z,99694.67
2019-06-01T05:16:08.091Z,99693.19
2019-06-01T05:18:36.815Z,99694.59
2019-06-01T05:21:06.450Z,99697.11
2019-06-01T05:23:35.267Z,99689.39
2019-06-01T05:26:03.991Z,99692.88
2019-06-01T05:28:32.856Z,99695.89
2019-06-01T05:31:01.598Z,99699.25
2019-06-01T05:33:37.418Z,99698.23
2019-06-01T05:36:00.913Z,99699.09
2019-06-01T05:38:29.641Z,99697.11
2019-06-01T05:40:58.391Z,99707.00
2019-06-01T05:43:27.155Z,99706.99
2019-06-01T05:45:55.889Z,99707.38
2019-06-01T05:48:28.468Z,99712.30
2019-06-01T05:50:55.136Z,99713.52
2019-06-01T05:53:23.858Z,99714.22
2019-06-01T05:55:52.582Z,99710.80
2019-06-01T05:58:21.790Z,99713.05
2019-06-01T06:00:50.560Z,99712.45
2019-06-01T06:03:22.258Z,99722.70
2019-06-01T06:05:49.787Z,99725.73
2019-06-01T06:08:18.507Z,99727.10
2019-06-01T06:10:47.223Z,99722.02
2019-06-01T06:13:17.435Z,99728.75
2019-06-01T06:15:46.282Z,99725.05
2019-06-01T06:18:15.764Z,99719.05
2019-06-01T06:20:44.758Z,99723.64
2019-06-01T06:23:14.267Z,99723.03
2019-06-01T06:25:43.067Z,99724.27
2019-06-01T06:28:12.575Z,99728.88
2019-06-01T06:30:41.247Z,99731.54
2019-06-01T06:33:10.000Z,99734.81
2019-06-01T06:35:38.854Z,99727.28
2019-06-01T06:38:07.569Z,99725.02
2019-06-01T06:40:36.284Z,99722.69
2019-06-01T06:43:18.611Z,99721.73
2019-06-01T06:45:35.681Z,99723.84
2019-06-01T06:48:04.409Z,99722.94
2019-06-01T06:50:33.177Z,99721.94
2019-06-01T06:53:01.899Z,99722.39
2019-06-01T06:55:30.624Z,99721.47
2019-06-01T06:57:59.363Z,99724.05
2019-06-01T07:00:28.079Z,99726.66
2019-06-01T07:02:56.791Z,99724.63
2019-06-01T07:05:25.600Z,99726.06
2019-06-01T07:07:54.371Z,99724.91
2019-06-01T07:10:24.173Z,99724.27
2019-06-01T07:12:53.041Z,99729.33
2019-06-01T07:15:21.748Z,99725.64
2019-06-01T07:17:50.509Z,99725.25
2019-06-01T07:20:19.579Z,99722.11
2019-06-01T07:22:48.280Z,99718.97
2019-06-01T07:25:16.990Z,99722.59
2019-06-01T07:27:45.760Z,99721.73
2019-06-01T07:30:14.570Z,99727.21
2019-06-01T07:32:43.302Z,99723.80
2019-06-01T07:35:12.020Z,99727.69
2019-06-01T07:37:40.753Z,99715.86
2019-06-01T07:40:13.309Z,99715.86
2019-06-01T07:42:40.073Z,99721.58
2019-06-01T07:45:09.194Z,99720.19
2019-06-01T07:47:37.909Z,99716.88
2019-06-01T07:50:09.803Z,99720.64
2019-06-01T07:52:38.521Z,99715.14
2019-06-01T07:55:07.535Z,99716.75
2019-06-01T07:57:36.416Z,99712.13
2019-06-01T08:00:07.866Z,99713.75
2019-06-01T08:02:36.589Z,99712.77
2019-06-01T08:05:09.682Z,99711.18
2019-06-01T08:07:38.430Z,99714.62
2019-06-01T08:10:07.557Z,99717.75
2019-06-01T08:12:36.445Z,99714.80
2019-06-01T08:15:08.741Z,99715.66
2019-06-01T08:17:37.443Z,99709.21
2019-06-01T08:20:07.910Z,99709.69
2019-06-01T08:22:36.630Z,99709.07
2019-06-01T08:25:06.813Z,99710.64
2019-06-01T08:27:35.669Z,99709.57
2019-06-01T08:30:06.704Z,99715.12
2019-06-01T08:32:35.425Z,99714.38
2019-06-01T08:35:09.191Z,99723.43
2019-06-01T08:37:34.940Z,99718.50
2019-06-01T08:40:04.290Z,99714.64
2019-06-01T08:42:33.732Z,99710.34
2019-06-01T08:45:02.633Z,99714.06
2019-06-01T08:47:31.938Z,99708.31
2019-06-01T08:50:01.464Z,99712.24
2019-06-01T08:52:30.417Z,99700.52
2019-06-01T08:54:59.237Z,99698.10
2019-06-01T08:57:28.259Z,99698.76
2019-06-01T08:59:57.104Z,99697.83
2019-06-01T09:02:26.611Z,99702.80
2019-06-01T09:04:55.480Z,99705.03
2019-06-01T09:07:24.850Z,99706.94
2019-06-01T09:09:53.704Z,99709.80
2019-06-01T09:12:22.553Z,99710.72
2019-06-01T09:14:51.280Z,99703.52
2019-06-01T09:17:20.020Z,99704.83
2019-06-01T09:19:48.883Z,99708.89
2019-06-01T09:22:17.644Z,99705.64
2019-06-01T09:24:46.365Z,99702.26
2019-06-01T09:27:15.145Z,99701.03
2019-06-01T09:29:44.796Z,99691.32
2019-06-01T09:32:13.661Z,99683.45
2019-06-01T09:34:42.519Z,99684.64
2019-06-01T09:37:11.230Z,99679.69
2019-06-01T09:39:39.955Z,99689.50
2019-06-01T09:42:08.846Z,99688.42
2019-06-01T09:44:37.561Z,99687.94
2019-06-01T09:47:06.278Z,99684.45
2019-06-01T09:49:35.816Z,99678.90
2019-06-01T09:52:06.756Z,99671.18
2019-06-01T09:54:36.392Z,99667.27
2019-06-01T09:57:05.961Z,99663.08
2019-06-01T09:59:34.670Z,99658.98
2019-06-01T10:02:03.385Z,99649.20
2019-06-01T10:04:32.349Z,99642.87
2019-06-01T10:07:01.172Z,99645.34
2019-06-01T10:09:29.886Z,99648.34
2019-06-01T10:11:58.741Z,99637.98
2019-06-01T10:14:27.459Z,99642.54
2019-06-01T10:16:59.059Z,99636.75
2019-06-01T10:19:28.711Z,99637.32
2019-06-01T10:21:57.434Z,99633.66
2019-06-01T10:24:26.215Z,99628.89
2019-06-01T10:26:55.168Z,99624.32
2019-06-01T10:29:23.882Z,99619.70
2019-06-01T10:31:52.608Z,99618.59
2019-06-01T10:34:21.395Z,99611.54
2019-06-01T10:36:50.138Z,99610.55
2019-06-01T10:39:19.771Z,99609.31
2019-06-01T10:41:48.749Z,99608.27
2019-06-01T10:44:17.584Z,99612.06
2019-06-01T10:46:46.301Z,99604.16
2019-06-01T10:49:15.353Z,99610.38
2019-06-01T10:51:44.072Z,99611.77
2019-06-01T10:54:14.321Z,99605.16
2019-06-01T10:56:44.675Z,99599.70
2019-06-01T10:59:13.420Z,99596.63
2019-06-01T11:01:42.721Z,99601.92
2019-06-01T11:04:11.830Z,99599.41
2019-06-01T11:06:44.923Z,99587.68
2019-06-01T11:09:11.011Z,99601.48
2019-06-01T11:11:41.165Z,99597.16
2019-06-01T11:14:10.125Z,99597.53
2019-06-01T11:16:39.486Z,99596.45
2019-06-01T11:19:08.416Z,99591.78
2019-06-01T11:21:37.468Z,99580.43
2019-06-01T11:24:06.547Z,99578.25
2019-06-01T11:26:35.742Z,99577.64
2019-06-01T11:29:04.660Z,99579.82
2019-06-01T11:31:33.866Z,99574.89
2019-06-01T11:34:02.837Z,99581.44
2019-06-01T11:36:31.550Z,99583.41
2019-06-01T11:39:00.269Z,99578.84
2019-06-01T11:41:29.125Z,99576.39
2019-06-01T11:43:57.844Z,99569.73
2019-06-01T11:46:26.568Z,99567.95
2019-06-01T11:48:55.445Z,99566.86
2019-06-01T11:51:24.162Z,99566.84
2019-06-01T11:53:52.879Z,99558.47
2019-06-01T11:56:21.638Z,99564.25
2019-06-01T11:58:50.355Z,99571.41
2019-06-01T12:01:19.087Z,99564.59
2019-06-01T12:03:47.944Z,99564.25
2019-06-01T12:06:16.668Z,99560.71
2019-06-01T12:08:46.385Z,99567.41
2019-06-01T12:11:15.372Z,99561.56
2019-06-01T12:13:44.517Z,99552.95
2019-06-01T12:16:13.352Z,99557.27
2019-06-01T12:18:42.636Z,99552.22
2019-06-01T12:21:11.470Z,99555.88
2019-06-01T12:23:41.437Z,99557.11
2019-06-01T12:26:10.431Z,99549.98
2019-06-01T12:28:39.590Z,99540.87
2019-06-01T12:31:08.366Z,99536.09
2019-06-01T12:33:37.977Z,99538.02
2019-06-01T12:36:07.112Z,99532.70
2019-06-01T12:38:39.831Z,99532.37
2019-06-01T12:41:08.705Z,99531.59
2019-06-01T12:43:37.422Z,99525.20
2019-06-01T12:46:07.869Z,99530.86
2019-06-01T12:48:36.735Z,99538.64
2019-06-01T12:51:05.462Z,99529.43
2019-06-01T12:53:34.189Z,99524.42
2019-06-01T12:56:04.194Z,99526.56
2019-06-01T12:58:32.914Z,99529.87
2019-06-01T13:01:02.830Z,99527.86
2019-06-01T13:03:32.059Z,99525.70
2019-06-01T13:06:00.787Z,99521.15
2019-06-01T13:08:29.515Z,99511.55
2019-06-01T13:10:58.274Z,99510.79
2019-06-01T13:13:26.991Z,99500.18
2019-06-01T13:15:55.722Z,99505.76
2019-06-01T13:18:24.530Z,99504.73
2019-06-01T13:20:53.255Z,99496.68
2019-06-01T13:23:21.990Z,99499.55
2019-06-01T13:25:51.877Z,99498.03
2019-06-01T13:28:35.045Z,99500.03
2019-06-01T13:30:52.876Z,99496.30
2019-06-01T13:33:21.911Z,99500.15
2019-06-01T13:35:52.657Z,99496.32
2019-06-01T13:38:21.459Z,99499.39
2019-06-01T13:40:51.059Z,99493.72
2019-06-01T13:43:20.050Z,99491.94
2019-06-01T13:45:49.288Z,99492.75
2019-06-01T13:48:18.142Z,99490.87
2019-06-01T13:50:47.838Z,99495.45
2019-06-01T13:53:16.664Z,99493.02
2019-06-01T13:55:46.040Z,99496.50
2019-06-01T13:58:14.778Z,99496.65
2019-06-01T14:00:44.255Z,99494.61
2019-06-01T14:03:13.165Z,99488.98
2019-06-01T14:05:41.876Z,99482.66
2019-06-01T14:08:27.570Z,99487.39
2019-06-01T14:10:41.109Z,99488.59
2019-06-01T14:13:09.829Z,99485.97
2019-06-01T14:15:39.129Z,99481.48
2019-06-01T14:18:08.088Z,99477.06
2019-06-01T14:20:36.816Z,99473.84
2019-06-01T14:23:05.535Z,99467.01
2019-06-01T14:25:34.305Z,99465.98
2019-06-01T14:28:03.023Z,99462.67
2019-06-01T14:30:31.749Z,99463.83
2019-06-01T14:33:00.688Z,99455.36
2019-06-01T14:35:29.407Z,99450.75
2019-06-01T14:37:58.117Z,99448.34
2019-06-01T14:40:26.924Z,99439.34
2019-06-01T14:42:55.761Z,99437.67
2019-06-01T14:45:24.445Z,99438.10
2019-06-01T14:47:56.007Z,99435.90
2019-06-01T14:50:24.723Z,99435.17
2019-06-01T14:52:53.725Z,99437.17
2019-06-01T14:55:22.650Z,99440.09
2019-06-01T14:57:52.410Z,99431.68
2019-06-01T15:00:21.391Z,99436.02
2019-06-01T15:02:50.262Z,99430.88
2019-06-01T15:05:19.086Z,99428.42
2019-06-01T15:07:48.192Z,99434.17
2019-06-01T15:10:17.075Z,99427.70
2019-06-01T15:12:45.807Z,99427.43
2019-06-01T15:15:15.231Z,99421.42
2019-06-01T15:17:44.115Z,99426.59
2019-06-01T15:20:13.714Z,99422.69
2019-06-01T15:22:42.801Z,99422.06
2019-06-01T15:25:12.261Z,99423.13
2019-06-01T15:27:40.986Z,99415.84
2019-06-01T15:30:12.172Z,99419.02
2019-06-01T15:32:41.023Z,99416.70
2019-06-01T15:35:10.510Z,99416.70
2019-06-01T15:37:39.231Z,99413.97
2019-06-01T15:40:10.419Z,99413.97
2019-06-01T15:42:39.266Z,99421.39
2019-06-01T15:45:08.848Z,99404.34
2019-06-01T15:47:37.630Z,99410.70
2019-06-01T15:50:08.063Z,99409.27
2019-06-01T15:52:39.720Z,99419.66
2019-06-01T15:55:09.103Z,99413.08
2019-06-01T15:57:39.811Z,99413.08
2019-06-01T16:00:09.567Z,99416.33
2019-06-01T16:02:38.343Z,99418.05
2019-06-01T16:05:07.972Z,99417.11
2019-06-01T16:07:36.697Z,99423.59
2019-06-01T16:10:09.491Z,99423.64
2019-06-01T16:12:38.244Z,99426.84
2019-06-01T16:15:08.773Z,99434.29
2019-06-01T16:17:37.724Z,99430.13
2019-06-01T16:20:08.833Z,99426.53
2019-06-01T16:22:37.552Z,99435.42
2019-06-01T16:25:07.821Z,99441.56
2019-06-01T16:27:36.546Z,99436.69
2019-06-01T16:30:08.688Z,99436.92
2019-06-01T16:32:39.581Z,99436.63
2019-06-01T16:35:09.043Z,99436.28
2019-06-01T16:37:37.794Z,99439.17
2019-06-01T16:40:10.994Z,99441.65
2019-06-01T16:42:39.798Z,99443.18
2019-06-01T16:45:09.022Z,99439.56
2019-06-01T16:47:37.908Z,99446.61
2019-06-01T16:50:08.539Z,99443.02
2019-06-01T16:52:37.275Z,99443.02
2019-06-01T16:55:07.346Z,99441.67
2019-06-01T16:57:37.904Z,99442.83
2019-06-01T17:00:09.381Z,99431.98
2019-06-01T17:02:38.170Z,99435.23
2019-06-01T17:05:07.597Z,99431.45
2019-06-01T17:07:36.323Z,99434.86
2019-06-01T17:10:24.627Z,99438.31
2019-06-01T17:12:43.468Z,99430.88
2019-06-01T17:15:11.917Z,99440.57
2019-06-01T17:17:40.712Z,99448.78
2019-06-01T17:20:30.295Z,99444.36
2019-06-01T17:22:59.522Z,99446.07
2019-06-01T17:25:28.370Z,99442.44
2019-06-01T17:27:58.012Z,99446.44
2019-06-01T17:30:26.942Z,99452.14
2019-06-01T17:32:55.671Z,99447.94
2019-06-01T17:35:24.502Z,99456.52
2019-06-01T17:37:53.285Z,99452.89
2019-06-01T17:40:35.996Z,99447.58
2019-06-01T17:42:52.597Z,99448.34
2019-06-01T17:45:21.485Z,99452.73
2019-06-01T17:47:50.229Z,99448.93
2019-06-01T17:50:21.191Z,99456.53
2019-06-01T17:52:50.053Z,99457.47
2019-06-01T17:55:36.054Z,99460.47
2019-06-01T17:58:05.881Z,99466.37
2019-06-01T18:00:34.803Z,99460.60
2019-06-01T18:03:03.747Z,99449.11
2019-06-01T18:05:32.589Z,99447.89
2019-06-01T18:08:01.885Z,99449.96
2019-06-01T18:10:30.908Z,99462.27
2019-06-01T18:12:59.769Z,99461.45
2019-06-01T18:15:28.493Z,99454.14
2019-06-01T18:17:57.223Z,99446.25
2019-06-01T18:20:26.177Z,99443.32
2019-06-01T18:22:54.923Z,99451.64
2019-06-01T18:25:27.373Z,99454.42
2019-06-01T18:27:56.364Z,99448.88
2019-06-01T18:30:25.678Z,99449.86
2019-06-01T18:32:56.497Z,99450.42
2019-06-01T18:35:27.019Z,99453.85
2019-06-01T18:37:55.837Z,99445.87
2019-06-01T18:40:25.368Z,99447.92
2019-06-01T18:42:57.165Z,99444.31
2019-06-01T18:45:26.089Z,99446.20
2019-06-01T18:47:54.906Z,99461.96
2019-06-01T18:50:23.781Z,99477.97
2019-06-01T18:52:52.537Z,99493.45
2019-06-01T18:55:21.350Z,99498.57
2019-06-01T18:57:53.148Z,99498.22
2019-06-01T19:00:21.870Z,99498.37
2019-06-01T19:02:50.602Z,99497.74
2019-06-01T19:05:19.588Z,99558.31
2019-06-01T19:07:48.301Z,99569.05
2019-06-01T19:10:18.346Z,99573.89
2019-06-01T19:12:47.391Z,99568.05
2019-06-01T19:15:27.597Z,99549.16
2019-06-01T19:17:47.286Z,99534.78
2019-06-01T19:20:17.018Z,99540.34
2019-06-01T19:22:45.916Z,99531.53
2019-06-01T19:25:16.966Z,99526.56
2019-06-01T19:27:45.831Z,99527.23
2019-06-01T19:30:17.192Z,99518.89
2019-06-01T19:32:46.209Z,99519.89
2019-06-01T19:35:15.692Z,99515.22
2019-06-01T19:37:44.559Z,99520.33
2019-06-01T19:40:15.522Z,99513.48
2019-06-01T19:42:44.458Z,99516.13
2019-06-01T19:45:24.371Z,99511.63
2019-06-01T19:47:43.928Z,99514.86
2019-06-01T19:50:12.805Z,99518.40
2019-06-01T19:52:41.534Z,99524.42
2019-06-01T19:55:10.775Z,99541.11
2019-06-01T19:57:39.699Z,99539.02
2019-06-01T20:00:10.110Z,99535.86
2019-06-01T20:02:39.145Z,99536.91
2019-06-01T20:05:08.360Z,99550.58
2019-06-01T20:07:38.381Z,99566.22
